createdAt,value
2018-05-25T00:00:43.959Z,19.60
2018-05-25T00:03:12.202Z,19.97
2018-05-25T00:05:40.455Z,20.10
2018-05-25T00:08:08.693Z,20.10
2018-05-25T00:10:37.720Z,19.60
2018-05-25T00:13:05.980Z,22.47
2018-05-25T00:15:34.399Z,20.77
2018-05-25T00:18:02.666Z,20.20
2018-05-25T00:20:31.681Z,19.77
2018-05-25T00:22:59.947Z,21.70
2018-05-25T00:25:28.970Z,21.57
2018-05-25T00:27:57.226Z,20.90
2018-05-25T00:30:25.499Z,21.40
2018-05-25T00:32:54.546Z,22.87
2018-05-25T00:35:22.812Z,21.30
2018-05-25T00:37:51.084Z,21.93
2018-05-25T00:40:19.349Z,21.37
2018-05-25T00:42:47.603Z,21.77
2018-05-25T00:45:16.077Z,21.83
2018-05-25T00:47:44.329Z,22.43
2018-05-25T00:50:12.598Z,22.50
2018-05-25T00:52:40.846Z,21.07
2018-05-25T00:55:20.991Z,22.03
2018-05-25T00:57:50.013Z,22.60
2018-05-25T01:00:18.322Z,21.83
2018-05-25T01:02:46.577Z,22.70
2018-05-25T01:05:14.852Z,22.90
2018-05-25T01:07:43.104Z,22.10
2018-05-25T01:10:12.147Z,23.57
2018-05-25T01:12:40.394Z,22.23
2018-05-25T01:15:08.818Z,24.87
2018-05-25T01:17:37.061Z,22.90
2018-05-25T01:20:06.111Z,24.27
2018-05-25T01:22:34.343Z,23.57
2018-05-25T01:25:02.670Z,24.30
2018-05-25T01:27:31.025Z,22.20
2018-05-25T01:29:59.271Z,23.57
2018-05-25T01:32:28.388Z,21.60
2018-05-25T01:34:57.411Z,23.43
2018-05-25T01:37:25.691Z,24.20
2018-05-25T01:39:53.923Z,22.93
2018-05-25T01:42:22.984Z,21.03
2018-05-25T01:44:51.248Z,21.30
2018-05-25T01:47:19.535Z,21.00
2018-05-25T01:49:48.000Z,21.53
2018-05-25T01:52:16.260Z,20.90
2018-05-25T01:54:45.296Z,19.83
2018-05-25T01:57:13.545Z,21.37
2018-05-25T01:59:42.606Z,21.37
2018-05-25T02:02:10.848Z,18.50
2018-05-25T02:04:39.137Z,18.83
2018-05-25T02:07:07.384Z,18.90
2018-05-25T02:09:36.465Z,16.20
2018-05-25T02:12:04.717Z,20.20
2018-05-25T02:14:32.960Z,18.20
2018-05-25T02:17:01.286Z,18.40
2018-05-25T02:19:29.564Z,16.90
2018-05-25T02:21:57.929Z,18.60
2018-05-25T02:24:26.229Z,16.40
2018-05-25T02:26:54.505Z,19.93
2018-05-25T02:29:22.755Z,21.43
2018-05-25T02:31:51.039Z,20.47
2018-05-25T02:34:19.313Z,20.27
2018-05-25T02:36:47.583Z,22.10
2018-05-25T02:39:15.854Z,22.73
2018-05-25T02:41:44.925Z,23.40
2018-05-25T02:44:13.168Z,23.50
2018-05-25T02:46:41.409Z,23.97
2018-05-25T02:49:10.440Z,24.87
2018-05-25T02:51:38.732Z,26.57
2018-05-25T02:54:07.007Z,24.80
2018-05-25T02:56:35.274Z,22.80
2018-05-25T02:59:03.546Z,25.57
2018-05-25T03:01:31.828Z,25.03
2018-05-25T03:04:00.124Z,25.00
2018-05-25T03:06:28.403Z,24.13
2018-05-25T03:08:56.656Z,23.23
2018-05-25T03:11:25.687Z,23.77
2018-05-25T03:13:53.936Z,22.93
2018-05-25T03:16:22.184Z,22.00
2018-05-25T03:18:50.831Z,22.57
2018-05-25T03:21:19.084Z,24.27
2018-05-25T03:23:47.840Z,23.43
2018-05-25T03:26:16.593Z,23.07
2018-05-25T03:28:44.823Z,23.53
2018-05-25T03:31:13.838Z,23.83
2018-05-25T03:33:42.339Z,21.97
2018-05-25T03:36:10.574Z,21.90
2018-05-25T03:38:38.824Z,23.17
2018-05-25T03:41:07.080Z,22.83
2018-05-25T03:43:35.334Z,21.27
2018-05-25T03:46:04.367Z,20.70
2018-05-25T03:48:32.619Z,20.67
2018-05-25T03:51:02.073Z,21.70
2018-05-25T03:53:30.314Z,22.53
2018-05-25T03:55:58.576Z,22.50
2018-05-25T03:58:39.688Z,20.60
2018-05-25T04:01:19.845Z,20.90
2018-05-25T04:03:49.743Z,22.33
2018-05-25T04:06:18.011Z,22.60
2018-05-25T04:08:47.360Z,25.10
2018-05-25T04:11:15.706Z,25.33
2018-05-25T04:13:44.726Z,26.77
2018-05-25T04:16:13.010Z,24.97
2018-05-25T04:18:41.385Z,26.27
2018-05-25T04:21:09.665Z,22.30
2018-05-25T04:23:37.978Z,21.10
2018-05-25T04:26:06.322Z,21.83
2018-05-25T04:28:34.569Z,26.47
2018-05-25T04:31:02.832Z,28.13
2018-05-25T04:33:31.080Z,27.40
2018-05-25T04:36:00.119Z,28.13
2018-05-25T04:38:28.359Z,27.57
2018-05-25T04:40:56.609Z,26.07
2018-05-25T04:43:26.046Z,27.70
2018-05-25T04:45:54.305Z,27.57
2018-05-25T04:48:22.677Z,23.73
2018-05-25T04:50:51.732Z,24.47
2018-05-25T04:53:19.996Z,25.50
2018-05-25T04:55:49.269Z,23.70
2018-05-25T04:58:18.472Z,23.10
2018-05-25T05:00:46.720Z,27.13
2018-05-25T05:03:14.972Z,25.17
2018-05-25T05:05:43.252Z,24.93
2018-05-25T05:08:11.678Z,24.50
2018-05-25T05:10:40.692Z,24.47
2018-05-25T05:13:08.981Z,23.90
2018-05-25T05:15:37.571Z,26.00
2018-05-25T05:18:05.816Z,28.10
2018-05-25T05:20:34.952Z,43.70
2018-05-25T05:23:03.226Z,28.93
2018-05-25T05:25:31.456Z,27.10
2018-05-25T05:27:59.801Z,28.60
2018-05-25T05:30:28.074Z,28.47
2018-05-25T05:32:56.320Z,28.63
2018-05-25T05:35:25.357Z,26.63
2018-05-25T05:37:53.635Z,27.43
2018-05-25T05:40:21.889Z,27.23
2018-05-25T05:42:51.402Z,25.67
2018-05-25T05:45:20.411Z,27.00
2018-05-25T05:47:48.696Z,23.50
2018-05-25T05:50:17.125Z,25.63
2018-05-25T05:52:45.598Z,25.20
2018-05-25T05:55:15.833Z,25.80
2018-05-25T05:57:45.837Z,22.57
2018-05-25T06:00:14.103Z,22.43
2018-05-25T06:02:42.423Z,23.70
2018-05-25T06:05:10.688Z,23.90
2018-05-25T06:07:38.948Z,23.23
2018-05-25T06:10:07.225Z,21.47
2018-05-25T06:12:35.514Z,12.33
2018-05-25T06:15:03.899Z,13.47
2018-05-25T06:17:32.251Z,17.70
2018-05-25T06:20:00.645Z,16.50
2018-05-25T06:22:29.279Z,16.53
2018-05-25T06:24:57.598Z,18.13
2018-05-25T06:27:25.862Z,18.37
2018-05-25T06:29:54.217Z,16.87
2018-05-25T06:32:22.623Z,18.07
2018-05-25T06:34:50.972Z,16.13
2018-05-25T06:37:19.393Z,17.40
2018-05-25T06:39:48.217Z,18.80
2018-05-25T06:42:16.512Z,18.07
2018-05-25T06:44:44.844Z,19.73
2018-05-25T06:47:13.183Z,17.80
2018-05-25T06:49:41.708Z,19.23
2018-05-25T06:52:10.030Z,16.70
2018-05-25T06:54:39.544Z,16.83
2018-05-25T06:57:08.833Z,19.30
2018-05-25T06:59:37.223Z,18.30
2018-05-25T07:02:05.648Z,18.87
2018-05-25T07:04:33.932Z,17.27
2018-05-25T07:07:03.758Z,17.17
2018-05-25T07:09:32.177Z,18.33
2018-05-25T07:12:00.514Z,16.50
2018-05-25T07:14:29.619Z,18.97
2018-05-25T07:16:58.394Z,17.03
2018-05-25T07:19:26.713Z,16.57
2018-05-25T07:21:56.324Z,17.10
2018-05-25T07:24:24.652Z,17.27
2018-05-25T07:26:53.090Z,16.20
2018-05-25T07:29:21.295Z,16.83
2018-05-25T07:31:49.558Z,17.00
2018-05-25T07:34:18.595Z,15.30
2018-05-25T13:05:22.328Z,11.68
2018-05-25T13:07:50.636Z,11.95
2018-05-25T13:10:19.684Z,9.43
2018-05-25T13:12:47.959Z,10.30
2018-05-25T13:15:16.234Z,9.93
2018-05-25T13:17:44.561Z,9.93
2018-05-25T13:20:13.582Z,8.63
2018-05-25T13:22:41.895Z,9.50
2018-05-25T13:25:10.178Z,8.93
2018-05-25T13:27:38.489Z,8.33
2018-05-25T13:30:06.754Z,8.40
2018-05-25T13:32:34.987Z,6.53
2018-05-25T13:35:03.991Z,7.67
2018-05-25T13:37:32.273Z,6.30
2018-05-25T13:40:01.442Z,7.73
2018-05-25T13:42:29.740Z,6.60
2018-05-25T13:44:58.765Z,5.97
2018-05-25T13:47:27.059Z,5.57
2018-05-25T13:49:55.315Z,6.80
2018-05-25T13:52:23.596Z,7.30
2018-05-25T13:54:51.845Z,7.90
2018-05-25T13:57:20.881Z,7.30
2018-05-25T13:59:49.113Z,7.70
2018-05-25T14:02:18.248Z,6.60
2018-05-25T14:04:46.542Z,7.30
2018-05-25T14:07:15.016Z,7.90
2018-05-25T14:09:44.308Z,7.20
2018-05-25T14:12:13.333Z,8.10
2018-05-25T14:14:41.621Z,8.87
2018-05-25T14:17:09.843Z,8.47
2018-05-25T14:19:38.933Z,8.97
2018-05-25T14:22:07.182Z,8.30
2018-05-25T14:24:35.443Z,10.90
2018-05-25T14:27:03.727Z,9.80
2018-05-25T14:29:31.988Z,9.60
2018-05-25T14:32:00.996Z,9.10
2018-05-25T14:34:29.255Z,9.43
2018-05-25T14:36:58.308Z,10.13
2018-05-25T14:39:26.587Z,9.20
2018-05-25T14:41:54.846Z,9.93
2018-05-25T14:44:23.140Z,10.77
2018-05-25T14:46:51.432Z,10.50
2018-05-25T14:49:19.730Z,10.83
2018-05-25T14:51:47.988Z,10.00
2018-05-25T14:54:17.773Z,9.80
2018-05-25T14:56:46.038Z,9.40
2018-05-25T14:59:14.424Z,8.50
2018-05-25T15:01:42.721Z,9.70
2018-05-25T15:04:10.975Z,8.40
2018-05-25T15:06:39.285Z,8.40
2018-05-25T15:09:08.300Z,7.90
2018-05-25T15:11:37.591Z,7.27
2018-05-25T15:14:06.037Z,8.17
2018-05-25T15:16:34.308Z,7.97
2018-05-25T15:19:03.315Z,7.23
2018-05-25T15:21:31.597Z,7.93
2018-05-25T15:24:00.610Z,7.47
2018-05-25T15:26:29.653Z,6.40
2018-05-25T15:28:57.997Z,6.47
2018-05-25T15:31:26.245Z,6.90
2018-05-25T15:33:55.264Z,5.80
2018-05-25T15:36:24.289Z,5.97
2018-05-25T15:38:52.545Z,5.73
2018-05-25T15:41:21.618Z,5.60
2018-05-25T15:43:49.929Z,5.47
2018-05-25T15:46:18.993Z,6.67
2018-05-25T15:48:47.184Z,4.70
2018-05-25T15:51:16.231Z,6.13
2018-05-25T15:53:44.492Z,5.60
2018-05-25T15:56:12.752Z,5.67
2018-05-25T15:58:41.831Z,7.10
2018-05-25T16:01:11.577Z,5.40
2018-05-25T16:03:40.616Z,5.30
2018-05-25T16:06:08.884Z,4.93
2018-05-25T16:08:37.185Z,5.77
2018-05-25T16:11:06.135Z,5.63
2018-05-25T16:13:35.175Z,6.00
2018-05-25T16:16:03.441Z,5.60
2018-05-25T16:18:31.764Z,5.93
2018-05-25T16:21:00.017Z,4.70
2018-05-25T16:23:28.333Z,5.10
2018-05-25T16:25:58.099Z,4.77
2018-05-25T16:28:26.344Z,5.40
2018-05-25T16:30:55.352Z,4.60
2018-05-25T16:33:23.620Z,4.77
2018-05-25T16:35:52.641Z,4.87
2018-05-25T16:38:20.903Z,5.23
2018-05-25T16:40:49.886Z,4.90
2018-05-25T16:43:19.113Z,4.73
2018-05-25T16:45:47.352Z,4.73
2018-05-25T16:48:15.603Z,5.23
2018-05-25T16:50:44.124Z,5.40
2018-05-25T16:53:12.344Z,4.70
2018-05-25T16:55:40.582Z,5.43
2018-05-25T16:58:09.615Z,5.17
2018-05-25T17:00:38.628Z,5.33
2018-05-25T17:03:06.890Z,5.87
2018-05-25T17:05:35.146Z,5.80
2018-05-25T17:08:04.314Z,4.90
2018-05-25T17:10:32.564Z,5.90
2018-05-25T17:13:00.792Z,5.63
2018-05-25T17:15:29.124Z,5.67
2018-05-25T17:17:57.361Z,5.40
2018-05-25T17:20:26.362Z,6.60
2018-05-25T17:22:55.407Z,5.90
2018-05-25T17:25:23.657Z,6.20
2018-05-25T17:27:52.685Z,5.10
2018-05-25T17:30:20.928Z,5.67
2018-05-25T17:32:49.925Z,5.40
2018-05-25T17:35:19.188Z,4.67
2018-05-25T17:37:47.429Z,5.60
2018-05-25T17:40:15.659Z,4.70
2018-05-25T17:42:43.948Z,5.67
2018-05-25T17:45:12.181Z,4.90
2018-05-25T17:47:40.421Z,5.40
2018-05-25T17:50:08.677Z,5.33
2018-05-25T17:52:36.917Z,4.83
2018-05-25T17:55:05.173Z,6.20
2018-05-25T17:57:34.199Z,6.20
2018-05-25T18:00:02.445Z,6.53
2018-05-25T18:02:31.784Z,6.60
2018-05-25T18:05:00.033Z,5.37
2018-05-25T18:07:29.066Z,6.10
2018-05-25T18:09:57.294Z,5.03
2018-05-25T18:12:25.531Z,4.50
2018-05-25T18:14:53.771Z,3.97
2018-05-25T18:17:22.867Z,4.53
2018-05-25T18:19:51.045Z,5.10
2018-05-25T18:22:20.049Z,5.70
2018-05-25T18:24:49.084Z,4.93
2018-05-25T18:27:17.350Z,4.43
2018-05-25T18:29:46.350Z,5.23
2018-05-25T18:32:14.945Z,5.93
2018-05-25T18:34:43.172Z,4.87
2018-05-25T18:37:12.218Z,4.70
2018-05-25T18:39:40.826Z,5.30
2018-05-25T18:42:09.069Z,6.00
2018-05-25T18:44:37.320Z,4.77
2018-05-25T18:47:06.352Z,5.90
2018-05-25T18:49:34.636Z,6.17
2018-05-25T18:52:03.615Z,5.60
2018-05-25T18:54:33.577Z,6.23
2018-05-25T18:57:01.830Z,7.00
2018-05-25T18:59:30.079Z,6.63
2018-05-25T19:01:59.697Z,5.90
2018-05-25T19:04:28.713Z,6.40
2018-05-25T19:06:56.987Z,6.03
2018-05-25T19:09:26.057Z,6.00
2018-05-25T19:11:54.341Z,5.30
2018-05-25T19:14:22.776Z,5.83
2018-05-25T19:16:51.103Z,6.37
2018-05-25T19:19:19.448Z,7.03
2018-05-25T19:21:48.357Z,6.23
2018-05-25T19:24:16.637Z,6.40
2018-05-25T19:26:44.905Z,6.33
2018-05-25T19:29:13.227Z,7.30
2018-05-25T19:31:44.209Z,6.57
2018-05-25T19:34:12.583Z,7.03
2018-05-25T19:36:42.096Z,10.57
2018-05-25T19:39:10.385Z,6.40
2018-05-25T19:41:38.695Z,7.80
2018-05-25T19:44:06.979Z,11.60
2018-05-25T19:46:35.973Z,7.50
2018-05-25T19:49:04.247Z,10.70
2018-05-25T19:51:32.483Z,8.77
2018-05-25T19:54:01.511Z,6.80
2018-05-25T19:56:29.789Z,7.40
2018-05-25T19:58:58.053Z,8.13
2018-05-25T20:01:27.216Z,11.23
2018-05-25T20:03:57.132Z,14.77
2018-05-25T20:06:25.297Z,9.50
2018-05-25T20:08:53.571Z,7.30
2018-05-25T20:11:21.883Z,7.10
2018-05-25T20:13:50.211Z,8.63
2018-05-25T20:16:18.527Z,10.75
2018-05-25T20:18:46.823Z,10.07
2018-05-25T20:21:15.049Z,8.73
2018-05-25T20:23:43.313Z,8.80
2018-05-25T20:26:11.922Z,8.60
2018-05-25T20:28:40.262Z,8.93
2018-05-25T20:31:09.337Z,9.40
2018-05-25T20:33:37.652Z,8.93
2018-05-25T20:36:07.008Z,8.50
2018-05-25T20:38:35.245Z,8.07
2018-05-25T20:41:03.479Z,8.10
2018-05-25T20:43:31.744Z,8.37
2018-05-25T20:45:59.972Z,8.00
2018-05-25T20:48:29.025Z,7.00
2018-05-25T20:50:57.300Z,6.50
2018-05-25T20:53:25.546Z,7.20
2018-05-25T20:55:54.567Z,7.17
2018-05-25T20:58:22.827Z,6.67
2018-05-25T21:00:51.881Z,6.80
2018-05-25T21:03:20.143Z,6.70
2018-05-25T21:05:48.525Z,7.43
2018-05-25T21:08:16.827Z,7.53
2018-05-25T21:10:45.263Z,6.80
2018-05-25T21:13:13.553Z,6.67
2018-05-25T21:15:41.879Z,7.33
2018-05-25T21:18:10.139Z,6.80
2018-05-25T21:20:38.405Z,6.80
2018-05-25T21:23:06.697Z,7.00
2018-05-25T21:25:34.913Z,6.63
2018-05-25T21:28:03.942Z,8.30
2018-05-25T21:30:32.193Z,7.50
2018-05-25T21:33:01.195Z,8.20
2018-05-25T21:35:30.221Z,8.30
2018-05-25T21:37:58.488Z,7.90
2018-05-25T21:40:26.763Z,7.27
2018-05-25T21:42:55.884Z,7.37
2018-05-25T21:45:24.372Z,6.90
2018-05-25T21:47:52.607Z,6.50
2018-05-25T21:50:20.872Z,6.50
2018-05-25T21:52:49.125Z,7.30
2018-05-25T21:55:17.394Z,7.30
2018-05-25T21:57:45.692Z,7.07
2018-05-25T22:00:13.979Z,7.67
2018-05-25T22:02:42.220Z,7.23
2018-05-25T22:05:10.481Z,8.13
2018-05-25T22:07:39.508Z,10.10
2018-05-25T22:10:07.786Z,10.00
2018-05-25T22:12:36.041Z,10.57
2018-05-25T22:15:05.056Z,10.77
2018-05-25T22:17:33.449Z,10.07
2018-05-25T22:20:01.737Z,9.47
2018-05-25T22:22:29.997Z,11.00
2018-05-25T22:24:59.236Z,9.90
2018-05-25T22:27:27.488Z,10.13
2018-05-25T22:29:55.747Z,9.40
2018-05-25T22:32:24.777Z,10.50
2018-05-25T22:34:53.100Z,8.73
2018-05-25T22:37:21.376Z,10.83
2018-05-25T22:39:50.437Z,10.93
2018-05-25T22:42:30.672Z,9.03
2018-05-25T22:45:17.123Z,10.00
2018-05-25T22:48:03.284Z,9.77
2018-05-25T22:50:49.575Z,8.50
2018-05-25T22:53:29.835Z,11.27
2018-05-25T22:55:58.210Z,9.87
2018-05-25T22:58:26.455Z,10.20
2018-05-25T23:00:55.658Z,10.27
2018-05-25T23:03:23.921Z,10.40
2018-05-25T23:05:52.200Z,10.40
2018-05-25T23:08:21.227Z,10.80
2018-05-25T23:10:49.481Z,9.60
2018-05-25T23:13:17.725Z,9.43
2018-05-25T23:15:46.021Z,9.30
2018-05-25T23:18:14.305Z,10.20
2018-05-25T23:20:43.332Z,9.60
2018-05-25T23:23:12.359Z,9.40
2018-05-25T23:25:40.651Z,9.93
2018-05-25T23:28:09.101Z,10.13
2018-05-25T23:30:37.405Z,9.87
2018-05-25T23:33:05.689Z,9.07
2018-05-25T23:35:33.942Z,9.77
2018-05-25T23:38:02.229Z,10.17
2018-05-25T23:40:30.544Z,10.30
2018-05-25T23:42:58.813Z,10.60
2018-05-25T23:45:27.974Z,9.70
2018-05-25T23:47:57.018Z,9.50
2018-05-25T23:50:25.262Z,9.70
2018-05-25T23:52:53.536Z,9.10
2018-05-25T23:55:22.548Z,10.03
2018-05-25T23:57:50.824Z,12.13
